Terminal Aerodrome Forecast
Issued by NWS

Home | Current Version | Previous Version | Text Only | Print | Product List | Glossary Off
Versions: 1 2 3 4 5 6 7 8 9 10 11 12 13 14

000
FTUS43 KBIS 202300
TAFDIK
TAF
KDIK 202325Z 2100/2124 17009KT P6SM SCT015 BKN120
     FM210400 21008KT P6SM BKN150
     FM211400 25014KT P6SM SCT150=

USA.gov is the U.S. government's official web portal to all federal, state and local government web resources and services.